CDT,Max TemperatureF,Mean TemperatureF,Min TemperatureF,Max Dew PointF,MeanDew PointF,Min DewpointF,Max Humidity, Mean Humidity, Min Humidity, Max Sea Level PressureIn, Mean Sea Level PressureIn, Min Sea Level PressureIn, Max VisibilityMiles, Mean VisibilityMiles, Min VisibilityMiles, Max Wind SpeedMPH, Mean Wind SpeedMPH, Max Gust SpeedMPH,PrecipitationIn, CloudCover, Events, WindDirDegrees
2013-9-1,73,63,52,56,52,45,93,70,47,30.12,30.06,29.96,10,10,10,13,6,16,0.00,5,,350
2013-9-2,81,65,48,58,52,45,89,66,42,30.09,30.01,29.92,10,10,10,14,6,20,0.00,0,,138
2013-9-3,90,76,61,63,58,52,84,56,27,30.06,29.94,29.90,10,10,10,14,6,17,0.00,0,,165
2013-9-4,77,64,51,59,50,39,87,63,39,30.20,30.15,30.08,10,10,9,14,7,18,0.00,0,,82
2013-9-5,90,75,60,64,57,51,73,57,41,30.15,30.03,29.91,10,10,9,16,7,21,0.00,0,,132
2013-9-6,91,79,66,67,64,61,87,63,38,29.94,29.89,29.86,10,10,10,15,6,20,0.00,1,,283
2013-9-7,77,68,59,64,57,53,90,68,46,30.16,30.08,29.95,10,9,2,20,8,24,0.22,4,Rain,41
2013-9-8,71,66,60,63,58,55,93,81,68,30.07,29.94,29.80,10,10,9,10,5,13,0.02,7,Rain,46
2013-9-9,74,67,60,63,61,55,100,82,64,29.83,29.75,29.70,10,7,0,12,5,15,0.83,7,Fog-Rain-Thunderstorm,315
2013-9-10,80,69,57,59,56,48,100,67,33,29.99,29.89,29.83,10,8,2,25,10,30,0.00,3,,253
2013-9-11,76,65,54,54,47,41,86,58,29,30.25,30.13,29.99,10,10,10,17,10,23,0.00,0,,291
2013-9-12,73,60,46,49,46,43,93,66,38,30.36,30.29,30.21,10,10,7,9,4,10,0.00,0,,245
2013-9-13,83,66,48,53,49,46,93,64,34,30.20,30.00,29.81,10,10,10,22,10,29,0.00,0,,158
2013-9-14,77,62,47,56,51,46,83,64,45,30.13,29.86,29.75,10,10,10,25,8,32,0.00,1,,24
2013-9-15,63,52,40,45,41,36,93,65,36,30.36,30.30,30.15,10,10,10,10,6,15,0.00,2,,41
2013-9-16,72,57,41,51,46,39,96,70,44,30.28,30.10,29.88,10,10,10,26,13,33,0.00,0,,142
2013-9-17,81,68,55,61,55,50,86,67,48,29.87,29.72,29.62,10,10,10,21,11,26,0.00,0,,162
2013-9-18,73,66,58,63,60,57,100,84,68,29.66,29.59,29.55,10,8,0,18,4,22,0.02,5,Fog-Rain-Thunderstorm,71
2013-9-19,60,55,49,61,49,39,93,80,66,30.04,29.83,29.63,10,10,6,28,15,33,0.01,7,,276
2013-9-20,63,51,39,40,38,36,92,66,39,30.06,30.02,29.99,10,10,10,18,8,23,0.00,1,,289
2013-9-21,71,53,34,44,40,34,92,63,33,29.98,29.87,29.72,10,10,8,21,10,26,0.00,0,,121
2013-9-22,78,61,43,59,51,41,96,71,45,29.71,29.53,29.43,10,10,10,18,7,23,0.15,1,Rain-Thunderstorm,75
2013-9-23,64,60,55,59,56,53,93,90,86,29.77,29.55,29.40,10,9,2,21,9,25,0.54,7,Rain-Thunderstorm,268
2013-9-24,72,60,48,51,43,38,86,58,29,29.91,29.85,29.79,10,10,10,14,7,18,0.00,0,,216
2013-9-25,77,64,50,54,50,45,80,59,38,29.80,29.64,29.55,10,10,10,28,11,33,0.00,2,,132
2013-9-26,67,59,50,58,51,41,93,75,57,29.87,29.63,29.50,10,9,4,26,11,33,0.05,6,Rain-Thunderstorm,216
2013-9-27,55,51,46,47,44,40,93,80,66,29.88,29.84,29.79,10,10,3,16,8,21,0.21,7,Rain,275
2013-9-28,64,55,46,46,40,35,93,65,36,29.83,29.74,29.69,10,10,10,22,10,30,0.00,4,,230
2013-9-29,73,60,47,47,42,38,71,55,38,29.74,29.59,29.49,10,10,10,23,11,30,0.00,1,,192
2013-9-30,74,61,47,50,41,35,83,58,33,29.56,29.51,29.42,10,10,7,37,10,48,0.11,2,Rain,218